Impacts TAF Board INFO
FOR SITUATIONAL AWARENESS. NOT TO BE USED FOR FLIGHT PLANNING PURPOSES.
IDs:

KEAU - Eau Claire/Chippewa, WI, US

Issued at 1756 UTC 19 Jul 2018
Updated at 1936 UTC 19 Jul 2018
Potential Impact None Slight Moderate High
Time<<20/08Z 20/09Z 20/10Z 20/11Z 20/12Z 20/13Z 20/14Z 20/15Z 20/16Z 20/17Z 20/18Z 20/19Z 20/20Z>>
Type PRVL PRVL PRVL PRVL
  [PRB30]  
PRVL
  [PRB30]  
PRVL
  [PRB30]  
PRVL
  [PRB30]  
PRVL PRVL PRVL
VIS 5 5 5 5
  [4]  
5
  [4]  
5
  [4]  
5
  [4]  
4 4 4
CIG 10 8 8 8
  [7]  
8
  [7]  
8
  [7]  
8
  [7]  
15 15 15
Cover OVC OVC OVC OVC
  [OVC]  
OVC
  [OVC]  
OVC
  [OVC]  
OVC
  [OVC]  
OVC OVC OVC
FltCat MVFR IFR IFR IFR
  [IFR]  
IFR
  [IFR]  
IFR
  [IFR]  
IFR
  [IFR]  
MVFR MVFR MVFR
WX BR BR VCSH BR VCSH BR VCSH
  [-RA]  
BR VCSH
  [-RA]  
BR VCSH
  [-RA]  
BR VCSH
  [-RA]  
-RA BR -RA BR -RA BR
WDir 60 60 60 60
[60]
60
[60]
60
[60]
60
[60]
360 360 360
WSpd 5 6 6 6
  [6]  
6
  [6]  
6
  [6]  
6
  [6]  
8 8 8
WGst -- -- -- --
  [--]  
--
  [--]  
--
  [--]  
--
  [--]  
-- -- --

Raw TAF
KEAU 191756Z 1918/2018 17012KT P6SM VCSH SCT035
  FM192100 13011KT P6SM OVC050
  TEMPO 1921/1924 P6SM -RA OVC050
  FM200000 11011KT P6SM VCSH OVC019
  FM200600 06005KT 5SM BR OVC010
  FM200900 06006KT 5SM BR VCSH OVC008
  PROB30 2011/2015 4SM -RA OVC007
  FM201500 36008KT 4SM -RA BR OVC015


METAR Board
Radar Display
Forecast Discussion

FOR SITUATIONAL AWARENESS. NOT TO BE USED FOR FLIGHT PLANNING PURPOSES.